Terminal Aerodrome Forecast
Issued by NWS

Home | Current Version | Previous Version | Graphics & Text | Print | Product List | Glossary On
Versions: 1 2 3 4 5 6 7 8 9 10 11 12 13 14 15 16 17 18 19 20 21 22 23 24 25 26 27
000
FTUS45 KGGW 261400 AAA
TAFOLF
TAF AMD
KOLF 261401Z 2614/2712 30012KT P6SM OVC021
      TEMPO 2614/2618 BKN018 OVC035
     FM262000 36007KT P6SM OVC070
     FM270400 VRB04KT P6SM VCSH OVC050=

USA.gov is the U.S. government's official web portal to all federal, state and local government web resources and services.